sensor_id;sensor_type;location;lat;lon;timestamp;P1;durP1;ratioP1;P2;durP2;ratioP2
29344;SDS011;16339;48.748;2.222;2022-12-18T00:01:15;73.38;;;26.05;;
29344;SDS011;16339;48.748;2.222;2022-12-18T00:03:54;70.32;;;25.88;;
29344;SDS011;16339;48.748;2.222;2022-12-18T00:06:24;79.38;;;26.10;;
29344;SDS011;16339;48.748;2.222;2022-12-18T00:08:55;74.13;;;24.92;;
29344;SDS011;16339;48.748;2.222;2022-12-18T00:11:29;69.28;;;25.20;;
29344;SDS011;16339;48.748;2.222;2022-12-18T00:13:59;66.93;;;24.75;;
29344;SDS011;16339;48.748;2.222;2022-12-18T00:16:28;68.50;;;25.33;;
29344;SDS011;16339;48.748;2.222;2022-12-18T00:19:00;66.72;;;25.35;;
29344;SDS011;16339;48.748;2.222;2022-12-18T00:21:30;76.20;;;27.08;;
29344;SDS011;16339;48.748;2.222;2022-12-18T00:24:08;74.97;;;25.70;;
29344;SDS011;16339;48.748;2.222;2022-12-18T00:26:42;75.22;;;26.83;;
29344;SDS011;16339;48.748;2.222;2022-12-18T00:29:13;77.95;;;26.60;;
29344;SDS011;16339;48.748;2.222;2022-12-18T00:31:45;71.57;;;26.88;;
29344;SDS011;16339;48.748;2.222;2022-12-18T00:34:14;86.43;;;27.92;;
29344;SDS011;16339;48.748;2.222;2022-12-18T00:36:43;70.82;;;26.40;;
29344;SDS011;16339;48.748;2.222;2022-12-18T00:39:13;67.22;;;25.50;;
29344;SDS011;16339;48.748;2.222;2022-12-18T00:41:44;79.88;;;27.58;;
29344;SDS011;16339;48.748;2.222;2022-12-18T00:44:26;72.35;;;24.98;;
29344;SDS011;16339;48.748;2.222;2022-12-18T00:46:54;78.03;;;26.77;;
29344;SDS011;16339;48.748;2.222;2022-12-18T00:49:23;80.07;;;25.92;;
29344;SDS011;16339;48.748;2.222;2022-12-18T00:51:52;69.80;;;25.95;;
29344;SDS011;16339;48.748;2.222;2022-12-18T00:54:21;75.60;;;26.38;;
29344;SDS011;16339;48.748;2.222;2022-12-18T00:57:04;77.13;;;24.98;;
29344;SDS011;16339;48.748;2.222;2022-12-18T00:59:33;76.28;;;28.02;;
29344;SDS011;16339;48.748;2.222;2022-12-18T01:02:12;65.97;;;25.73;;
29344;SDS011;16339;48.748;2.222;2022-12-18T01:04:53;70.57;;;24.75;;
29344;SDS011;16339;48.748;2.222;2022-12-18T01:09:57;75.72;;;26.17;;
29344;SDS011;16339;48.748;2.222;2022-12-18T01:12:37;70.17;;;24.57;;
29344;SDS011;16339;48.748;2.222;2022-12-18T01:15:15;68.70;;;23.73;;
29344;SDS011;16339;48.748;2.222;2022-12-18T01:17:45;75.97;;;26.30;;
29344;SDS011;16339;48.748;2.222;2022-12-18T01:20:18;86.53;;;26.52;;
29344;SDS011;16339;48.748;2.222;2022-12-18T01:22:47;66.10;;;25.08;;
29344;SDS011;16339;48.748;2.222;2022-12-18T01:25:17;77.28;;;26.52;;
29344;SDS011;16339;48.748;2.222;2022-12-18T01:30:18;64.97;;;24.48;;
29344;SDS011;16339;48.748;2.222;2022-12-18T01:32:48;76.43;;;25.40;;
29344;SDS011;16339;48.748;2.222;2022-12-18T01:35:17;71.90;;;25.88;;
29344;SDS011;16339;48.748;2.222;2022-12-18T01:37:46;73.03;;;26.13;;
29344;SDS011;16339;48.748;2.222;2022-12-18T01:40:27;65.55;;;25.10;;
29344;SDS011;16339;48.748;2.222;2022-12-18T01:43:01;69.05;;;24.48;;
29344;SDS011;16339;48.748;2.222;2022-12-18T01:45:39;62.63;;;24.98;;
29344;SDS011;16339;48.748;2.222;2022-12-18T01:48:08;61.88;;;24.83;;
29344;SDS011;16339;48.748;2.222;2022-12-18T01:50:40;62.55;;;22.80;;
29344;SDS011;16339;48.748;2.222;2022-12-18T01:53:16;62.83;;;23.60;;
29344;SDS011;16339;48.748;2.222;2022-12-18T01:55:50;220.18;;;28.60;;
29344;SDS011;16339;48.748;2.222;2022-12-18T01:58:32;62.25;;;23.95;;
29344;SDS011;16339;48.748;2.222;2022-12-18T02:01:09;65.90;;;24.30;;
29344;SDS011;16339;48.748;2.222;2022-12-18T02:03:40;62.30;;;23.25;;
29344;SDS011;16339;48.748;2.222;2022-12-18T02:06:15;69.32;;;23.85;;
29344;SDS011;16339;48.748;2.222;2022-12-18T02:08:51;70.03;;;24.88;;
29344;SDS011;16339;48.748;2.222;2022-12-18T02:11:34;70.55;;;25.15;;
29344;SDS011;16339;48.748;2.222;2022-12-18T02:14:21;64.32;;;24.27;;
29344;SDS011;16339;48.748;2.222;2022-12-18T02:24:32;62.15;;;24.30;;
29344;SDS011;16339;48.748;2.222;2022-12-18T02:27:12;58.63;;;24.17;;
29344;SDS011;16339;48.748;2.222;2022-12-18T02:29:43;69.15;;;25.40;;
29344;SDS011;16339;48.748;2.222;2022-12-18T02:32:16;56.67;;;23.88;;
29344;SDS011;16339;48.748;2.222;2022-12-18T02:34:50;120.10;;;25.70;;
29344;SDS011;16339;48.748;2.222;2022-12-18T02:37:20;59.87;;;24.90;;
29344;SDS011;16339;48.748;2.222;2022-12-18T02:39:50;64.18;;;24.45;;
29344;SDS011;16339;48.748;2.222;2022-12-18T02:42:25;60.38;;;23.05;;
29344;SDS011;16339;48.748;2.222;2022-12-18T02:44:55;56.13;;;23.00;;
29344;SDS011;16339;48.748;2.222;2022-12-18T02:47:27;63.80;;;24.23;;
29344;SDS011;16339;48.748;2.222;2022-12-18T02:50:02;60.25;;;24.55;;
29344;SDS011;16339;48.748;2.222;2022-12-18T02:52:38;70.18;;;25.30;;
29344;SDS011;16339;48.748;2.222;2022-12-18T02:55:16;58.47;;;24.52;;
29344;SDS011;16339;48.748;2.222;2022-12-18T02:57:58;63.03;;;25.00;;
29344;SDS011;16339;48.748;2.222;2022-12-18T03:00:34;61.95;;;23.20;;
29344;SDS011;16339;48.748;2.222;2022-12-18T03:03:11;57.22;;;23.33;;
29344;SDS011;16339;48.748;2.222;2022-12-18T03:05:47;61.03;;;23.95;;
29344;SDS011;16339;48.748;2.222;2022-12-18T03:08:24;66.88;;;24.70;;
29344;SDS011;16339;48.748;2.222;2022-12-18T03:10:57;65.03;;;24.17;;
29344;SDS011;16339;48.748;2.222;2022-12-18T03:13:33;54.95;;;23.58;;
29344;SDS011;16339;48.748;2.222;2022-12-18T03:16:05;60.60;;;24.30;;
29344;SDS011;16339;48.748;2.222;2022-12-18T03:18:36;66.53;;;25.25;;
29344;SDS011;16339;48.748;2.222;2022-12-18T03:21:10;60.42;;;23.55;;
29344;SDS011;16339;48.748;2.222;2022-12-18T03:23:42;57.85;;;23.60;;
29344;SDS011;16339;48.748;2.222;2022-12-18T03:26:16;62.55;;;23.50;;
29344;SDS011;16339;48.748;2.222;2022-12-18T03:28:51;58.22;;;23.42;;
29344;SDS011;16339;48.748;2.222;2022-12-18T03:31:21;65.13;;;24.40;;
29344;SDS011;16339;48.748;2.222;2022-12-18T03:33:54;61.05;;;22.73;;
29344;SDS011;16339;48.748;2.222;2022-12-18T03:36:25;60.42;;;22.75;;
29344;SDS011;16339;48.748;2.222;2022-12-18T03:38:55;60.50;;;23.63;;
29344;SDS011;16339;48.748;2.222;2022-12-18T03:41:25;62.35;;;23.98;;
29344;SDS011;16339;48.748;2.222;2022-12-18T03:44:03;60.90;;;23.77;;
29344;SDS011;16339;48.748;2.222;2022-12-18T03:46:40;59.15;;;23.80;;
29344;SDS011;16339;48.748;2.222;2022-12-18T03:49:14;66.85;;;24.08;;
29344;SDS011;16339;48.748;2.222;2022-12-18T03:51:50;62.38;;;24.48;;
29344;SDS011;16339;48.748;2.222;2022-12-18T03:54:22;60.85;;;22.30;;
29344;SDS011;16339;48.748;2.222;2022-12-18T03:56:54;65.47;;;24.58;;
29344;SDS011;16339;48.748;2.222;2022-12-18T03:59:30;146.15;;;25.92;;
29344;SDS011;16339;48.748;2.222;2022-12-18T04:02:00;60.00;;;23.63;;
29344;SDS011;16339;48.748;2.222;2022-12-18T04:04:31;54.90;;;22.60;;
29344;SDS011;16339;48.748;2.222;2022-12-18T04:07:02;60.47;;;22.88;;
29344;SDS011;16339;48.748;2.222;2022-12-18T04:09:32;65.97;;;23.90;;
29344;SDS011;16339;48.748;2.222;2022-12-18T04:12:04;59.15;;;23.40;;
29344;SDS011;16339;48.748;2.222;2022-12-18T04:14:36;64.13;;;24.80;;
29344;SDS011;16339;48.748;2.222;2022-12-18T04:17:04;62.75;;;23.80;;
29344;SDS011;16339;48.748;2.222;2022-12-18T04:19:33;65.55;;;23.38;;
29344;SDS011;16339;48.748;2.222;2022-12-18T04:22:02;64.30;;;24.42;;
29344;SDS011;16339;48.748;2.222;2022-12-18T04:24:32;60.28;;;23.15;;
29344;SDS011;16339;48.748;2.222;2022-12-18T04:27:01;60.15;;;22.77;;
29344;SDS011;16339;48.748;2.222;2022-12-18T04:29:30;62.80;;;24.10;;
29344;SDS011;16339;48.748;2.222;2022-12-18T04:32:01;61.90;;;23.02;;
29344;SDS011;16339;48.748;2.222;2022-12-18T04:34:30;57.92;;;22.77;;
29344;SDS011;16339;48.748;2.222;2022-12-18T04:36:59;65.85;;;23.60;;
29344;SDS011;16339;48.748;2.222;2022-12-18T04:39:28;64.60;;;23.27;;
29344;SDS011;16339;48.748;2.222;2022-12-18T04:41:57;54.58;;;23.08;;
29344;SDS011;16339;48.748;2.222;2022-12-18T04:44:26;61.95;;;24.58;;
29344;SDS011;16339;48.748;2.222;2022-12-18T04:46:54;62.53;;;23.02;;
29344;SDS011;16339;48.748;2.222;2022-12-18T04:49:26;65.00;;;22.95;;
29344;SDS011;16339;48.748;2.222;2022-12-18T04:51:55;61.83;;;23.10;;
29344;SDS011;16339;48.748;2.222;2022-12-18T04:54:23;71.53;;;23.70;;
29344;SDS011;16339;48.748;2.222;2022-12-18T04:56:52;54.22;;;22.63;;
29344;SDS011;16339;48.748;2.222;2022-12-18T04:59:21;55.83;;;24.27;;
29344;SDS011;16339;48.748;2.222;2022-12-18T05:01:50;65.72;;;23.10;;
29344;SDS011;16339;48.748;2.222;2022-12-18T05:04:19;54.35;;;22.27;;
29344;SDS011;16339;48.748;2.222;2022-12-18T05:06:51;60.85;;;21.98;;
29344;SDS011;16339;48.748;2.222;2022-12-18T05:09:19;57.33;;;23.00;;
29344;SDS011;16339;48.748;2.222;2022-12-18T05:11:48;59.25;;;23.58;;
29344;SDS011;16339;48.748;2.222;2022-12-18T05:14:17;55.50;;;22.65;;
29344;SDS011;16339;48.748;2.222;2022-12-18T05:16:46;60.03;;;23.95;;
29344;SDS011;16339;48.748;2.222;2022-12-18T05:19:15;54.10;;;21.98;;
29344;SDS011;16339;48.748;2.222;2022-12-18T05:21:44;64.82;;;25.70;;
29344;SDS011;16339;48.748;2.222;2022-12-18T05:24:16;68.03;;;23.13;;
29344;SDS011;16339;48.748;2.222;2022-12-18T05:26:44;59.58;;;23.02;;
29344;SDS011;16339;48.748;2.222;2022-12-18T05:29:13;71.35;;;25.13;;
29344;SDS011;16339;48.748;2.222;2022-12-18T05:31:42;64.05;;;22.52;;
29344;SDS011;16339;48.748;2.222;2022-12-18T05:34:11;61.90;;;23.48;;
29344;SDS011;16339;48.748;2.222;2022-12-18T05:36:40;67.78;;;23.40;;
29344;SDS011;16339;48.748;2.222;2022-12-18T05:39:09;70.35;;;23.67;;
29344;SDS011;16339;48.748;2.222;2022-12-18T05:41:40;58.13;;;22.83;;
29344;SDS011;16339;48.748;2.222;2022-12-18T05:44:09;57.78;;;22.02;;
29344;SDS011;16339;48.748;2.222;2022-12-18T05:46:38;60.20;;;23.25;;
29344;SDS011;16339;48.748;2.222;2022-12-18T05:49:07;58.38;;;22.55;;
29344;SDS011;16339;48.748;2.222;2022-12-18T05:51:36;52.65;;;21.27;;
29344;SDS011;16339;48.748;2.222;2022-12-18T05:54:05;67.50;;;22.63;;
29344;SDS011;16339;48.748;2.222;2022-12-18T05:56:34;62.65;;;22.52;;
29344;SDS011;16339;48.748;2.222;2022-12-18T05:59:05;129.98;;;24.50;;
29344;SDS011;16339;48.748;2.222;2022-12-18T06:01:34;55.15;;;22.42;;
29344;SDS011;16339;48.748;2.222;2022-12-18T06:04:03;63.72;;;23.55;;
29344;SDS011;16339;48.748;2.222;2022-12-18T06:06:32;64.25;;;22.55;;
29344;SDS011;16339;48.748;2.222;2022-12-18T06:09:01;59.50;;;21.33;;
29344;SDS011;16339;48.748;2.222;2022-12-18T06:11:34;65.55;;;23.88;;
29344;SDS011;16339;48.748;2.222;2022-12-18T06:14:08;69.57;;;23.25;;
29344;SDS011;16339;48.748;2.222;2022-12-18T06:16:38;56.30;;;21.42;;
29344;SDS011;16339;48.748;2.222;2022-12-18T06:19:07;61.35;;;22.88;;
29344;SDS011;16339;48.748;2.222;2022-12-18T06:21:35;57.60;;;23.25;;
29344;SDS011;16339;48.748;2.222;2022-12-18T06:24:04;55.38;;;21.67;;
29344;SDS011;16339;48.748;2.222;2022-12-18T06:26:34;55.55;;;21.85;;
29344;SDS011;16339;48.748;2.222;2022-12-18T06:29:07;54.08;;;23.00;;
29344;SDS011;16339;48.748;2.222;2022-12-18T06:31:36;60.67;;;21.38;;
29344;SDS011;16339;48.748;2.222;2022-12-18T06:34:05;58.45;;;21.15;;
29344;SDS011;16339;48.748;2.222;2022-12-18T06:36:34;55.05;;;23.35;;
29344;SDS011;16339;48.748;2.222;2022-12-18T06:39:02;57.38;;;22.02;;
29344;SDS011;16339;48.748;2.222;2022-12-18T06:41:31;52.80;;;21.25;;
29344;SDS011;16339;48.748;2.222;2022-12-18T06:44:00;70.28;;;21.50;;
29344;SDS011;16339;48.748;2.222;2022-12-18T06:46:31;59.85;;;22.63;;
29344;SDS011;16339;48.748;2.222;2022-12-18T06:49:00;57.80;;;22.20;;
29344;SDS011;16339;48.748;2.222;2022-12-18T06:51:29;51.85;;;18.98;;
29344;SDS011;16339;48.748;2.222;2022-12-18T06:53:58;58.30;;;20.75;;
29344;SDS011;16339;48.748;2.222;2022-12-18T06:56:27;50.58;;;20.15;;
29344;SDS011;16339;48.748;2.222;2022-12-18T06:58:55;55.55;;;20.80;;
29344;SDS011;16339;48.748;2.222;2022-12-18T07:01:24;51.47;;;21.08;;
29344;SDS011;16339;48.748;2.222;2022-12-18T07:03:56;64.65;;;23.65;;
29344;SDS011;16339;48.748;2.222;2022-12-18T07:06:25;63.42;;;21.77;;
29344;SDS011;16339;48.748;2.222;2022-12-18T07:08:54;54.63;;;21.05;;
29344;SDS011;16339;48.748;2.222;2022-12-18T07:11:23;54.67;;;22.23;;
29344;SDS011;16339;48.748;2.222;2022-12-18T07:13:52;56.03;;;22.98;;
29344;SDS011;16339;48.748;2.222;2022-12-18T07:16:21;53.20;;;21.08;;
29344;SDS011;16339;48.748;2.222;2022-12-18T07:18:50;68.50;;;22.80;;
29344;SDS011;16339;48.748;2.222;2022-12-18T07:21:22;58.42;;;22.42;;
29344;SDS011;16339;48.748;2.222;2022-12-18T07:23:51;57.55;;;21.08;;
29344;SDS011;16339;48.748;2.222;2022-12-18T07:26:20;53.13;;;21.33;;
29344;SDS011;16339;48.748;2.222;2022-12-18T07:28:54;54.53;;;21.23;;
29344;SDS011;16339;48.748;2.222;2022-12-18T07:31:24;54.58;;;21.08;;
29344;SDS011;16339;48.748;2.222;2022-12-18T07:33:54;59.25;;;21.55;;
29344;SDS011;16339;48.748;2.222;2022-12-18T07:36:25;50.53;;;21.02;;
29344;SDS011;16339;48.748;2.222;2022-12-18T07:41:22;52.15;;;19.98;;
29344;SDS011;16339;48.748;2.222;2022-12-18T07:43:51;63.88;;;22.08;;
29344;SDS011;16339;48.748;2.222;2022-12-18T07:46:20;59.85;;;21.17;;
29344;SDS011;16339;48.748;2.222;2022-12-18T07:48:49;55.72;;;21.80;;
29344;SDS011;16339;48.748;2.222;2022-12-18T07:51:18;56.78;;;21.17;;
29344;SDS011;16339;48.748;2.222;2022-12-18T07:53:49;53.38;;;21.65;;
29344;SDS011;16339;48.748;2.222;2022-12-18T07:56:18;64.65;;;22.80;;
29344;SDS011;16339;48.748;2.222;2022-12-18T07:58:47;57.42;;;22.10;;
29344;SDS011;16339;48.748;2.222;2022-12-18T08:01:16;55.95;;;22.02;;
29344;SDS011;16339;48.748;2.222;2022-12-18T08:03:45;63.55;;;23.05;;
29344;SDS011;16339;48.748;2.222;2022-12-18T08:06:14;61.00;;;21.30;;
29344;SDS011;16339;48.748;2.222;2022-12-18T08:08:42;53.28;;;21.38;;
29344;SDS011;16339;48.748;2.222;2022-12-18T08:11:17;55.30;;;21.52;;
29344;SDS011;16339;48.748;2.222;2022-12-18T08:13:46;76.35;;;22.50;;
29344;SDS011;16339;48.748;2.222;2022-12-18T08:16:15;57.92;;;21.77;;
29344;SDS011;16339;48.748;2.222;2022-12-18T08:18:44;57.10;;;22.67;;
29344;SDS011;16339;48.748;2.222;2022-12-18T08:21:14;57.50;;;21.73;;
29344;SDS011;16339;48.748;2.222;2022-12-18T08:23:46;51.20;;;21.83;;
29344;SDS011;16339;48.748;2.222;2022-12-18T08:26:17;61.85;;;21.60;;
29344;SDS011;16339;48.748;2.222;2022-12-18T08:28:47;65.47;;;22.33;;
29344;SDS011;16339;48.748;2.222;2022-12-18T08:31:16;57.60;;;22.17;;
29344;SDS011;16339;48.748;2.222;2022-12-18T08:33:47;55.22;;;21.35;;
29344;SDS011;16339;48.748;2.222;2022-12-18T08:36:17;53.95;;;21.02;;
29344;SDS011;16339;48.748;2.222;2022-12-18T08:38:46;55.25;;;20.75;;
29344;SDS011;16339;48.748;2.222;2022-12-18T08:41:18;57.65;;;22.88;;
29344;SDS011;16339;48.748;2.222;2022-12-18T08:43:47;52.35;;;20.98;;
29344;SDS011;16339;48.748;2.222;2022-12-18T08:46:31;58.55;;;21.95;;
29344;SDS011;16339;48.748;2.222;2022-12-18T08:49:02;53.40;;;21.77;;
29344;SDS011;16339;48.748;2.222;2022-12-18T08:51:32;60.50;;;21.95;;
29344;SDS011;16339;48.748;2.222;2022-12-18T08:54:01;58.40;;;22.25;;
29344;SDS011;16339;48.748;2.222;2022-12-18T08:56:34;60.00;;;22.33;;
29344;SDS011;16339;48.748;2.222;2022-12-18T08:59:02;55.65;;;22.75;;
29344;SDS011;16339;48.748;2.222;2022-12-18T09:01:32;56.08;;;21.73;;
29344;SDS011;16339;48.748;2.222;2022-12-18T09:04:00;59.00;;;22.40;;
29344;SDS011;16339;48.748;2.222;2022-12-18T09:06:29;61.15;;;23.10;;
29344;SDS011;16339;48.748;2.222;2022-12-18T09:08:58;57.33;;;23.63;;
29344;SDS011;16339;48.748;2.222;2022-12-18T09:11:28;55.30;;;22.33;;
29344;SDS011;16339;48.748;2.222;2022-12-18T09:14:00;54.95;;;23.92;;
29344;SDS011;16339;48.748;2.222;2022-12-18T09:16:29;63.50;;;23.67;;
29344;SDS011;16339;48.748;2.222;2022-12-18T09:19:00;55.25;;;22.50;;
29344;SDS011;16339;48.748;2.222;2022-12-18T09:21:31;57.47;;;23.25;;
29344;SDS011;16339;48.748;2.222;2022-12-18T09:24:04;54.20;;;21.70;;
29344;SDS011;16339;48.748;2.222;2022-12-18T09:26:33;65.80;;;24.85;;
29344;SDS011;16339;48.748;2.222;2022-12-18T09:29:05;64.97;;;24.95;;
29344;SDS011;16339;48.748;2.222;2022-12-18T09:31:35;65.22;;;24.15;;
29344;SDS011;16339;48.748;2.222;2022-12-18T09:34:05;68.85;;;24.55;;
29344;SDS011;16339;48.748;2.222;2022-12-18T09:36:35;45.47;;;17.63;;
29344;SDS011;16339;48.748;2.222;2022-12-18T09:39:03;62.05;;;23.20;;
29344;SDS011;16339;48.748;2.222;2022-12-18T09:41:35;58.60;;;23.23;;
29344;SDS011;16339;48.748;2.222;2022-12-18T09:44:17;65.05;;;23.08;;
29344;SDS011;16339;48.748;2.222;2022-12-18T09:46:50;59.72;;;23.42;;
29344;SDS011;16339;48.748;2.222;2022-12-18T09:49:23;61.08;;;24.40;;
29344;SDS011;16339;48.748;2.222;2022-12-18T09:51:55;62.83;;;24.08;;
29344;SDS011;16339;48.748;2.222;2022-12-18T09:54:26;64.47;;;24.08;;
29344;SDS011;16339;48.748;2.222;2022-12-18T09:57:01;62.10;;;24.58;;
29344;SDS011;16339;48.748;2.222;2022-12-18T09:59:34;64.65;;;24.83;;
29344;SDS011;16339;48.748;2.222;2022-12-18T10:02:15;60.03;;;24.30;;
29344;SDS011;16339;48.748;2.222;2022-12-18T10:07:20;54.78;;;22.88;;
29344;SDS011;16339;48.748;2.222;2022-12-18T10:09:58;60.47;;;24.40;;
29344;SDS011;16339;48.748;2.222;2022-12-18T10:12:37;126.03;;;25.40;;
29344;SDS011;16339;48.748;2.222;2022-12-18T10:15:16;55.47;;;21.83;;
29344;SDS011;16339;48.748;2.222;2022-12-18T10:17:51;60.13;;;25.52;;
29344;SDS011;16339;48.748;2.222;2022-12-18T10:20:34;60.28;;;23.60;;
29344;SDS011;16339;48.748;2.222;2022-12-18T10:23:12;58.65;;;23.95;;
29344;SDS011;16339;48.748;2.222;2022-12-18T10:25:49;67.95;;;24.73;;
29344;SDS011;16339;48.748;2.222;2022-12-18T10:28:22;61.67;;;24.70;;
29344;SDS011;16339;48.748;2.222;2022-12-18T10:30:55;58.45;;;23.20;;
29344;SDS011;16339;48.748;2.222;2022-12-18T10:33:27;57.97;;;24.80;;
29344;SDS011;16339;48.748;2.222;2022-12-18T10:35:57;65.85;;;23.95;;
29344;SDS011;16339;48.748;2.222;2022-12-18T10:38:27;67.32;;;25.63;;
29344;SDS011;16339;48.748;2.222;2022-12-18T10:40:57;61.03;;;23.33;;
29344;SDS011;16339;48.748;2.222;2022-12-18T10:43:28;67.70;;;26.08;;
29344;SDS011;16339;48.748;2.222;2022-12-18T10:46:09;54.47;;;23.33;;
29344;SDS011;16339;48.748;2.222;2022-12-18T10:48:50;54.70;;;24.25;;
29344;SDS011;16339;48.748;2.222;2022-12-18T10:51:22;58.85;;;24.60;;
29344;SDS011;16339;48.748;2.222;2022-12-18T10:56:25;59.97;;;23.08;;
29344;SDS011;16339;48.748;2.222;2022-12-18T10:58:57;62.42;;;24.88;;
29344;SDS011;16339;48.748;2.222;2022-12-18T11:01:32;65.95;;;25.33;;
29344;SDS011;16339;48.748;2.222;2022-12-18T11:04:18;63.25;;;24.75;;
29344;SDS011;16339;48.748;2.222;2022-12-18T11:06:56;52.97;;;23.05;;
29344;SDS011;16339;48.748;2.222;2022-12-18T11:09:27;71.00;;;28.73;;
29344;SDS011;16339;48.748;2.222;2022-12-18T11:11:57;68.80;;;25.15;;
29344;SDS011;16339;48.748;2.222;2022-12-18T11:14:28;61.63;;;24.60;;
29344;SDS011;16339;48.748;2.222;2022-12-18T11:17:02;69.63;;;26.30;;
29344;SDS011;16339;48.748;2.222;2022-12-18T11:19:33;66.25;;;25.30;;
29344;SDS011;16339;48.748;2.222;2022-12-18T11:22:16;57.20;;;23.98;;
29344;SDS011;16339;48.748;2.222;2022-12-18T11:24:52;66.05;;;24.33;;
29344;SDS011;16339;48.748;2.222;2022-12-18T11:27:22;64.32;;;23.88;;
29344;SDS011;16339;48.748;2.222;2022-12-18T11:29:51;74.22;;;22.50;;
29344;SDS011;16339;48.748;2.222;2022-12-18T11:35:14;54.20;;;22.60;;
29344;SDS011;16339;48.748;2.222;2022-12-18T11:38:06;61.55;;;24.17;;
29344;SDS011;16339;48.748;2.222;2022-12-18T11:40:43;66.25;;;25.05;;
29344;SDS011;16339;48.748;2.222;2022-12-18T11:43:16;62.40;;;25.25;;
29344;SDS011;16339;48.748;2.222;2022-12-18T11:45:53;57.85;;;25.10;;
29344;SDS011;16339;48.748;2.222;2022-12-18T11:48:29;65.50;;;26.25;;
29344;SDS011;16339;48.748;2.222;2022-12-18T11:51:01;69.95;;;26.58;;
29344;SDS011;16339;48.748;2.222;2022-12-18T11:57:13;69.88;;;26.23;;
29344;SDS011;16339;48.748;2.222;2022-12-18T12:00:11;64.88;;;26.63;;
29344;SDS011;16339;48.748;2.222;2022-12-18T12:03:39;70.93;;;28.35;;
29344;SDS011;16339;48.748;2.222;2022-12-18T12:06:24;66.18;;;27.45;;
29344;SDS011;16339;48.748;2.222;2022-12-18T12:09:06;71.10;;;25.67;;
29344;SDS011;16339;48.748;2.222;2022-12-18T12:14:26;60.60;;;23.95;;
29344;SDS011;16339;48.748;2.222;2022-12-18T12:17:11;55.33;;;23.17;;
29344;SDS011;16339;48.748;2.222;2022-12-18T12:19:56;59.90;;;23.90;;
29344;SDS011;16339;48.748;2.222;2022-12-18T12:22:38;70.53;;;24.10;;
29344;SDS011;16339;48.748;2.222;2022-12-18T12:25:21;63.15;;;25.10;;
29344;SDS011;16339;48.748;2.222;2022-12-18T12:28:02;52.95;;;23.60;;
29344;SDS011;16339;48.748;2.222;2022-12-18T12:30:44;66.18;;;27.00;;
29344;SDS011;16339;48.748;2.222;2022-12-18T12:33:29;60.80;;;25.33;;
29344;SDS011;16339;48.748;2.222;2022-12-18T12:36:08;65.18;;;25.08;;
29344;SDS011;16339;48.748;2.222;2022-12-18T12:38:52;60.40;;;25.48;;
29344;SDS011;16339;48.748;2.222;2022-12-18T12:41:34;64.53;;;24.30;;
29344;SDS011;16339;48.748;2.222;2022-12-18T12:44:25;64.10;;;25.50;;
29344;SDS011;16339;48.748;2.222;2022-12-18T12:47:00;67.43;;;25.90;;
29344;SDS011;16339;48.748;2.222;2022-12-18T12:49:35;62.17;;;25.95;;
29344;SDS011;16339;48.748;2.222;2022-12-18T12:52:15;58.58;;;25.48;;
29344;SDS011;16339;48.748;2.222;2022-12-18T12:54:50;63.67;;;26.38;;
29344;SDS011;16339;48.748;2.222;2022-12-18T12:57:20;63.55;;;26.00;;
29344;SDS011;16339;48.748;2.222;2022-12-18T12:59:56;64.88;;;25.83;;
29344;SDS011;16339;48.748;2.222;2022-12-18T13:02:33;61.10;;;25.30;;
29344;SDS011;16339;48.748;2.222;2022-12-18T13:05:08;65.30;;;25.92;;
29344;SDS011;16339;48.748;2.222;2022-12-18T13:07:49;57.53;;;24.00;;
29344;SDS011;16339;48.748;2.222;2022-12-18T13:10:25;63.97;;;25.45;;
29344;SDS011;16339;48.748;2.222;2022-12-18T13:13:02;56.03;;;23.30;;
29344;SDS011;16339;48.748;2.222;2022-12-18T13:15:37;58.25;;;24.63;;
29344;SDS011;16339;48.748;2.222;2022-12-18T13:18:18;59.53;;;24.23;;
29344;SDS011;16339;48.748;2.222;2022-12-18T13:20:49;47.20;;;17.50;;
29344;SDS011;16339;48.748;2.222;2022-12-18T13:23:33;63.42;;;25.40;;
29344;SDS011;16339;48.748;2.222;2022-12-18T13:29:03;60.15;;;24.80;;
29344;SDS011;16339;48.748;2.222;2022-12-18T13:34:29;55.33;;;23.48;;
29344;SDS011;16339;48.748;2.222;2022-12-18T13:43:26;59.58;;;24.52;;
29344;SDS011;16339;48.748;2.222;2022-12-18T13:46:02;60.47;;;24.75;;
29344;SDS011;16339;48.748;2.222;2022-12-18T13:48:49;60.08;;;24.05;;
29344;SDS011;16339;48.748;2.222;2022-12-18T13:51:30;63.55;;;24.05;;
29344;SDS011;16339;48.748;2.222;2022-12-18T13:54:01;59.95;;;23.92;;
29344;SDS011;16339;48.748;2.222;2022-12-18T13:56:34;64.15;;;24.85;;
29344;SDS011;16339;48.748;2.222;2022-12-18T13:59:15;64.93;;;24.80;;
29344;SDS011;16339;48.748;2.222;2022-12-18T14:01:47;54.90;;;25.17;;
29344;SDS011;16339;48.748;2.222;2022-12-18T14:04:20;69.00;;;28.60;;
29344;SDS011;16339;48.748;2.222;2022-12-18T14:06:52;68.95;;;27.98;;
29344;SDS011;16339;48.748;2.222;2022-12-18T14:09:25;70.47;;;27.27;;
29344;SDS011;16339;48.748;2.222;2022-12-18T14:11:56;60.55;;;26.80;;
29344;SDS011;16339;48.748;2.222;2022-12-18T14:14:43;59.80;;;26.25;;
29344;SDS011;16339;48.748;2.222;2022-12-18T14:17:13;65.45;;;26.08;;
29344;SDS011;16339;48.748;2.222;2022-12-18T14:19:43;69.70;;;25.35;;
29344;SDS011;16339;48.748;2.222;2022-12-18T14:22:18;63.63;;;26.35;;
29344;SDS011;16339;48.748;2.222;2022-12-18T14:25:04;56.15;;;22.52;;
29344;SDS011;16339;48.748;2.222;2022-12-18T14:27:42;65.47;;;24.77;;
29344;SDS011;16339;48.748;2.222;2022-12-18T14:30:28;64.35;;;24.00;;
29344;SDS011;16339;48.748;2.222;2022-12-18T14:32:59;58.30;;;22.80;;
29344;SDS011;16339;48.748;2.222;2022-12-18T14:35:31;58.25;;;25.33;;
29344;SDS011;16339;48.748;2.222;2022-12-18T14:38:18;61.85;;;25.95;;
29344;SDS011;16339;48.748;2.222;2022-12-18T14:40:53;54.03;;;23.45;;
29344;SDS011;16339;48.748;2.222;2022-12-18T14:43:24;59.97;;;24.58;;
29344;SDS011;16339;48.748;2.222;2022-12-18T14:45:56;60.38;;;24.52;;
29344;SDS011;16339;48.748;2.222;2022-12-18T14:48:33;58.30;;;24.65;;
29344;SDS011;16339;48.748;2.222;2022-12-18T14:51:12;61.22;;;26.02;;
29344;SDS011;16339;48.748;2.222;2022-12-18T14:53:45;65.95;;;25.55;;
29344;SDS011;16339;48.748;2.222;2022-12-18T14:56:16;66.72;;;26.85;;
29344;SDS011;16339;48.748;2.222;2022-12-18T14:58:48;66.82;;;26.70;;
29344;SDS011;16339;48.748;2.222;2022-12-18T15:01:25;64.55;;;26.70;;
29344;SDS011;16339;48.748;2.222;2022-12-18T15:03:56;64.68;;;26.38;;
29344;SDS011;16339;48.748;2.222;2022-12-18T15:06:28;55.95;;;25.25;;
29344;SDS011;16339;48.748;2.222;2022-12-18T15:09:01;57.95;;;25.83;;
29344;SDS011;16339;48.748;2.222;2022-12-18T15:11:33;62.17;;;27.40;;
29344;SDS011;16339;48.748;2.222;2022-12-18T15:17:14;63.58;;;27.08;;
29344;SDS011;16339;48.748;2.222;2022-12-18T15:19:45;63.30;;;26.73;;
29344;SDS011;16339;48.748;2.222;2022-12-18T15:22:20;71.32;;;28.50;;
29344;SDS011;16339;48.748;2.222;2022-12-18T15:24:51;66.60;;;26.88;;
29344;SDS011;16339;48.748;2.222;2022-12-18T15:27:24;71.13;;;28.65;;
29344;SDS011;16339;48.748;2.222;2022-12-18T15:30:11;68.13;;;28.08;;
29344;SDS011;16339;48.748;2.222;2022-12-18T15:32:48;68.93;;;27.80;;
29344;SDS011;16339;48.748;2.222;2022-12-18T15:35:19;78.25;;;31.23;;
29344;SDS011;16339;48.748;2.222;2022-12-18T15:37:50;69.13;;;29.50;;
29344;SDS011;16339;48.748;2.222;2022-12-18T15:40:20;75.93;;;29.70;;